createdAt,value
2017-09-12T00:00:02.201Z,53.17
2017-09-12T00:00:30.340Z,52.98
2017-09-12T00:00:58.377Z,53.37
2017-09-12T00:01:26.542Z,53.27
2017-09-12T00:01:54.597Z,53.47
2017-09-12T00:02:22.642Z,53.27
2017-09-12T00:02:50.695Z,53.66
2017-09-12T00:03:18.724Z,53.37
2017-09-12T00:03:46.763Z,53.85
2017-09-12T00:04:14.677Z,54.14
2017-09-12T00:04:42.760Z,54.43
2017-09-12T00:05:10.898Z,54.72
2017-09-12T00:05:38.935Z,55.01
2017-09-12T00:06:07.006Z,55.01
2017-09-12T00:06:35.172Z,56.04
2017-09-12T00:07:03.188Z,56.52
2017-09-12T00:07:31.153Z,57.78
2017-09-12T00:07:59.332Z,60.19
2017-09-12T00:08:27.456Z,62.51
2017-09-12T00:08:55.582Z,62.99
2017-09-12T00:09:23.628Z,63.37
2017-09-12T00:09:51.912Z,63.47
2017-09-12T00:10:19.927Z,64.15
2017-09-12T00:10:48.074Z,64.82
2017-09-12T00:11:16.050Z,65.11
2017-09-12T00:11:44.177Z,66.27
2017-09-12T00:12:12.343Z,65.78
2017-09-12T00:12:40.353Z,66.85
2017-09-12T00:13:08.418Z,67.14
2017-09-12T00:13:36.579Z,67.91
2017-09-12T00:14:04.617Z,68.29
2017-09-12T00:14:32.787Z,69.26
2017-09-12T00:15:00.926Z,69.93
2017-09-12T00:15:28.955Z,70.28
2017-09-12T00:15:56.772Z,70.67
2017-09-12T00:16:24.633Z,70.86
2017-09-12T00:16:52.714Z,70.86
2017-09-12T00:17:20.597Z,71.06
2017-09-12T00:17:48.529Z,70.96
2017-09-12T00:18:16.401Z,71.54
2017-09-12T00:18:44.328Z,71.64
2017-09-12T00:19:12.171Z,71.73
2017-09-12T00:19:40.319Z,71.73
2017-09-12T00:20:08.474Z,71.54
2017-09-12T00:20:36.293Z,71.73
2017-09-12T00:21:04.243Z,71.44
2017-09-12T00:21:32.286Z,71.83
2017-09-12T00:22:00.325Z,71.73
2017-09-12T00:22:28.506Z,71.73
2017-09-12T00:22:56.459Z,71.89
2017-09-12T00:23:24.541Z,71.6
2017-09-12T00:23:52.591Z,71.44
2017-09-12T00:24:20.411Z,71.25
2017-09-12T00:24:48.333Z,71.44
2017-09-12T00:25:16.563Z,71.12
2017-09-12T00:25:44.549Z,70.92
2017-09-12T00:26:12.716Z,71.06
2017-09-12T00:26:40.654Z,71.02
2017-09-12T00:27:08.694Z,71.22
2017-09-12T00:27:36.733Z,70.96
2017-09-12T00:28:04.842Z,70.67
2017-09-12T00:28:33.023Z,70.73
2017-09-12T00:29:00.962Z,70.25
2017-09-12T00:29:28.898Z,70.35
2017-09-12T00:29:56.947Z,70.76
2017-09-12T00:30:24.980Z,70.64
2017-09-12T00:30:53.009Z,70.54
2017-09-12T00:31:21.037Z,70.64
2017-09-12T00:31:49.188Z,70.64
2017-09-12T00:32:17.126Z,70.73
2017-09-12T00:32:45.165Z,70.25
2017-09-12T00:33:13.307Z,69.77
2017-09-12T00:33:41.271Z,69.77
2017-09-12T00:34:09.210Z,69.87
2017-09-12T00:34:37.371Z,69.87
2017-09-12T00:35:05.633Z,69.96
2017-09-12T00:35:33.764Z,70.25
2017-09-12T00:36:01.812Z,69.87
2017-09-12T00:36:29.963Z,69.96
2017-09-12T00:36:58.115Z,69.77
2017-09-12T00:37:26.142Z,70.06
2017-09-12T00:37:54.189Z,69.93
2017-09-12T00:38:22.229Z,69.93
2017-09-12T00:38:50.271Z,70.06
2017-09-12T00:39:18.287Z,70.06
2017-09-12T00:39:46.390Z,70.21
2017-09-12T00:40:14.564Z,70.21
2017-09-12T00:40:42.491Z,69.77
2017-09-12T00:41:10.674Z,69.73
2017-09-12T00:41:38.805Z,69.73
2017-09-12T00:42:06.850Z,69.93
2017-09-12T00:42:34.694Z,70.02
2017-09-12T00:43:02.746Z,69.54
2017-09-12T00:43:30.816Z,69.25
2017-09-12T00:43:58.864Z,69.25
2017-09-12T00:44:26.905Z,69.35
2017-09-12T00:44:54.963Z,69.35
2017-09-12T00:45:23.220Z,69.35
2017-09-12T00:45:51.413Z,69.73
2017-09-12T00:46:19.452Z,69.93
2017-09-12T00:46:47.595Z,69.83
2017-09-12T00:47:15.627Z,69.93
2017-09-12T00:47:43.510Z,70.21
2017-09-12T00:48:11.520Z,69.83
2017-09-12T00:48:39.482Z,69.83
2017-09-12T00:49:07.519Z,70.02
2017-09-12T00:49:35.563Z,70.02
2017-09-12T00:50:03.716Z,70.6
2017-09-12T00:50:31.874Z,70.41
2017-09-12T00:50:59.895Z,70.31
2017-09-12T00:51:27.935Z,70.41
2017-09-12T00:51:56.072Z,70.66
2017-09-12T00:52:24.229Z,71.14
2017-09-12T00:52:52.249Z,70.86
2017-09-12T00:53:20.297Z,70.6
2017-09-12T00:53:48.233Z,71.28
2017-09-12T00:54:16.273Z,71.72
2017-09-12T00:54:44.000Z,71.37
2017-09-12T00:55:12.148Z,71.34
2017-09-12T00:55:40.384Z,71.62
2017-09-12T00:56:08.447Z,71.53
2017-09-12T00:56:36.476Z,71.37
2017-09-12T00:57:04.601Z,71.72
2017-09-12T00:57:32.753Z,72.05
2017-09-12T00:58:00.812Z,72.05
2017-09-12T00:58:28.658Z,72.14
2017-09-12T00:58:56.799Z,72.33
2017-09-12T00:59:24.840Z,72.14
2017-09-12T00:59:52.879Z,72.33
2017-09-12T01:00:20.943Z,72.24
2017-09-12T01:00:48.688Z,71.85
2017-09-12T01:01:16.842Z,72.43
2017-09-12T01:01:44.691Z,73.07
2017-09-12T01:02:12.631Z,72.88
2017-09-12T01:02:40.768Z,73.58
2017-09-12T01:03:08.813Z,73.3
2017-09-12T01:03:36.975Z,73.88
2017-09-12T01:04:04.936Z,74.26
2017-09-12T01:04:32.964Z,73.97
2017-09-12T01:05:01.139Z,74.55
2017-09-12T01:05:29.154Z,74.45
2017-09-12T01:05:57.213Z,74.26
2017-09-12T01:06:25.248Z,74.65
2017-09-12T01:06:53.222Z,74.93
2017-09-12T01:07:21.151Z,74.65
2017-09-12T01:07:49.210Z,74.55
2017-09-12T01:08:17.240Z,75.42
2017-09-12T01:08:45.190Z,75.51
2017-09-12T01:09:13.127Z,75.03
2017-09-12T01:09:40.951Z,75.32
2017-09-12T01:10:08.990Z,75.13
2017-09-12T01:10:37.135Z,75.99
2017-09-12T01:11:04.960Z,76.09
2017-09-12T01:11:32.886Z,76.67
2017-09-12T01:12:00.916Z,76.76
2017-09-12T01:12:28.866Z,76.86
2017-09-12T01:12:56.911Z,77.15
2017-09-12T01:13:24.867Z,77.63
2017-09-12T01:13:53.022Z,77.21
2017-09-12T01:14:20.953Z,77.78
2017-09-12T01:14:48.997Z,77.78
2017-09-12T01:15:16.943Z,77.88
2017-09-12T01:15:45.211Z,77.98
2017-09-12T01:16:13.127Z,77.88
2017-09-12T01:16:41.040Z,78.17
2017-09-12T01:17:09.134Z,78.08
2017-09-12T01:17:37.158Z,78.85
2017-09-12T01:18:05.305Z,78.85
2017-09-12T01:18:33.356Z,79.03
2017-09-12T01:19:01.384Z,79.23
2017-09-12T01:19:29.359Z,79.23
2017-09-12T01:19:57.922Z,79.43
2017-09-12T01:20:26.056Z,79.52
2017-09-12T01:20:54.215Z,79.9
2017-09-12T01:21:22.268Z,79.81
2017-09-12T01:21:50.299Z,80
2017-09-12T01:22:18.269Z,80.19
2017-09-12T01:22:46.314Z,80.29
2017-09-12T01:23:14.193Z,80.29
2017-09-12T01:23:42.365Z,80.48
2017-09-12T01:24:10.326Z,80.29
2017-09-12T01:24:38.448Z,80.15
2017-09-12T01:25:06.527Z,80.29
2017-09-12T01:25:34.662Z,80.87
2017-09-12T01:26:02.695Z,80.44
2017-09-12T01:26:30.646Z,80.83
2017-09-12T01:26:58.682Z,81.12
2017-09-12T01:27:26.722Z,81.21
2017-09-12T01:27:54.659Z,81.12
2017-09-12T01:28:22.814Z,81.21
2017-09-12T01:28:50.857Z,81.02
2017-09-12T01:29:19.001Z,81.4
2017-09-12T01:29:47.176Z,81.3
2017-09-12T01:30:15.101Z,81.21
2017-09-12T01:30:43.228Z,81.21
2017-09-12T01:31:11.295Z,80.83
2017-09-12T01:31:39.324Z,81.12
2017-09-12T01:32:07.312Z,80.83
2017-09-12T01:32:35.143Z,80.63
2017-09-12T01:33:03.471Z,80.54
2017-09-12T01:33:31.488Z,79.96
2017-09-12T01:33:59.494Z,79.96
2017-09-12T01:34:27.519Z,79.38
2017-09-12T01:34:55.654Z,79.48
2017-09-12T01:35:23.707Z,79.1
2017-09-12T01:35:51.679Z,78.81
2017-09-12T01:36:19.659Z,78.9
2017-09-12T01:36:47.574Z,78.9
2017-09-12T01:37:15.631Z,78.61
2017-09-12T01:37:43.665Z,78.03
2017-09-12T01:38:11.821Z,78.03
2017-09-12T01:38:39.862Z,78.33
2017-09-12T01:39:08.007Z,77.84
2017-09-12T01:39:36.179Z,78.42
2017-09-12T01:40:04.239Z,77.94
2017-09-12T01:40:32.175Z,78.03
2017-09-12T01:41:00.102Z,77.94
2017-09-12T01:41:28.118Z,77.65
2017-09-12T01:41:56.154Z,77.94
2017-09-12T01:42:24.020Z,78.03
2017-09-12T01:42:52.053Z,78.23
2017-09-12T01:43:20.189Z,78.03
2017-09-12T01:43:48.317Z,78.13
2017-09-12T01:44:16.246Z,78.09
2017-09-12T01:44:44.268Z,78.19
2017-09-12T01:45:12.323Z,78.09
2017-09-12T01:45:40.388Z,77.94
2017-09-12T01:46:08.513Z,78.42
2017-09-12T01:46:36.526Z,78.58
2017-09-12T01:47:04.453Z,78.71
2017-09-12T01:47:32.380Z,78.77
2017-09-12T01:48:00.517Z,78.77
2017-09-12T01:48:28.554Z,78.77
2017-09-12T01:48:56.563Z,79.05
2017-09-12T01:49:24.637Z,79.35
2017-09-12T01:49:52.600Z,79.63
2017-09-12T01:50:20.582Z,79.53
2017-09-12T01:50:48.753Z,79.53
2017-09-12T01:51:16.809Z,79.25
2017-09-12T01:51:44.839Z,78.77
2017-09-12T01:52:12.867Z,77.9
2017-09-12T01:52:41.044Z,76.94
2017-09-12T01:53:08.908Z,77.17
2017-09-12T01:53:36.966Z,76.94
2017-09-12T01:54:04.986Z,76.46
2017-09-12T01:54:33.118Z,76.21
2017-09-12T01:55:01.258Z,70.53
2017-09-12T01:55:29.278Z,68.32
2017-09-12T01:55:57.533Z,66.58
2017-09-12T01:56:25.554Z,66.78
2017-09-12T01:56:53.711Z,66.71
2017-09-12T01:57:21.776Z,66.62
2017-09-12T01:57:49.712Z,66.52
2017-09-12T01:58:17.853Z,66.62
2017-09-12T01:58:45.879Z,66.81
2017-09-12T01:59:13.916Z,66.62
2017-09-12T01:59:41.966Z,66.71
2017-09-12T02:00:10.014Z,65.94
2017-09-12T02:00:38.157Z,66.04
2017-09-12T02:01:06.302Z,64.98
2017-09-12T02:01:34.424Z,64.89
2017-09-12T02:02:02.561Z,64.69
2017-09-12T02:02:30.518Z,64.5
2017-09-12T02:02:58.689Z,64.89
2017-09-12T02:03:26.721Z,64.69
2017-09-12T02:03:54.864Z,64.02
2017-09-12T02:04:22.921Z,63.64
2017-09-12T02:04:50.879Z,62.67
2017-09-12T02:05:18.890Z,61.52
2017-09-12T02:05:47.032Z,60
2017-09-12T02:06:15.006Z,59.91
2017-09-12T02:06:43.027Z,59.72
2017-09-12T02:07:10.869Z,59.91
2017-09-12T02:07:38.814Z,60
2017-09-12T02:08:06.947Z,59.23
2017-09-12T02:08:35.004Z,59.81
2017-09-12T02:09:02.940Z,59.81
2017-09-12T02:09:31.078Z,60.1
2017-09-12T02:09:59.201Z,60.2
2017-09-12T02:10:27.147Z,58.85
2017-09-12T02:10:55.179Z,58.37
2017-09-12T02:11:23.400Z,57.69
2017-09-12T02:11:51.158Z,57.89
2017-09-12T02:12:19.309Z,57.4
2017-09-12T02:12:47.163Z,57.4
2017-09-12T02:13:14.997Z,57.12
2017-09-12T02:13:42.922Z,56.25
2017-09-12T02:14:11.046Z,56.05
2017-09-12T02:14:39.092Z,56.15
2017-09-12T02:15:07.146Z,56.05
2017-09-12T02:15:35.194Z,56.15
2017-09-12T02:16:03.227Z,55.96
2017-09-12T02:16:31.312Z,56.63
2017-09-12T02:16:59.162Z,56.92
2017-09-12T02:17:27.009Z,57.02
2017-09-12T02:17:55.074Z,57.12
2017-09-12T02:18:23.029Z,56.92
2017-09-12T02:18:50.808Z,57.6
2017-09-12T02:19:18.836Z,57.79
2017-09-12T02:19:46.975Z,58.27
2017-09-12T02:20:14.817Z,58.65
2017-09-12T02:20:42.657Z,59.49
2017-09-12T02:21:10.698Z,60
2017-09-12T02:21:38.860Z,60.07
2017-09-12T02:22:06.909Z,60.84
2017-09-12T02:22:35.043Z,61.71
2017-09-12T02:23:03.171Z,61.71
2017-09-12T02:23:31.235Z,62.29
2017-09-12T02:23:59.311Z,62.48
2017-09-12T02:24:27.359Z,63.34
2017-09-12T02:24:55.515Z,63.51
2017-09-12T02:25:23.668Z,64.08
2017-09-12T02:25:51.609Z,63.79
2017-09-12T02:26:19.719Z,64.56
2017-09-12T02:26:47.658Z,65.24
2017-09-12T02:27:15.676Z,65.81
2017-09-12T02:27:43.719Z,65.81
2017-09-12T02:28:11.734Z,66.3
2017-09-12T02:28:39.876Z,66.78
2017-09-12T02:29:07.881Z,66.68
2017-09-12T02:29:35.823Z,67.55
2017-09-12T02:30:03.847Z,68.03
2017-09-12T02:30:31.906Z,68.67
2017-09-12T02:30:59.954Z,68.99
2017-09-12T02:31:28.103Z,69.06
2017-09-12T02:31:56.037Z,69.63
2017-09-12T02:32:24.190Z,70.59
2017-09-12T02:32:52.276Z,70.59
2017-09-12T02:33:20.321Z,71.08
2017-09-12T02:33:48.534Z,71.17
2017-09-12T02:34:16.646Z,71.17
2017-09-12T02:34:44.603Z,71.46
2017-09-12T02:35:12.663Z,71.75
2017-09-12T02:35:40.693Z,72.23
2017-09-12T02:36:08.827Z,72.32
2017-09-12T02:36:36.852Z,72.61
2017-09-12T02:37:04.980Z,72.71
2017-09-12T02:37:32.947Z,73.67
2017-09-12T02:38:00.876Z,73.19
2017-09-12T02:38:28.825Z,73.57
2017-09-12T02:38:56.748Z,73.67
2017-09-12T02:39:24.687Z,74.44
2017-09-12T02:39:52.647Z,74.44
2017-09-12T02:40:20.696Z,74.82
2017-09-12T02:40:48.673Z,74.63
2017-09-12T02:41:16.870Z,74.63
2017-09-12T02:41:44.839Z,75.11
2017-09-12T02:42:12.891Z,74.92
2017-09-12T02:42:40.849Z,74.82
2017-09-12T02:43:09.003Z,74.92
2017-09-12T02:43:37.026Z,74.63
2017-09-12T02:44:05.077Z,74.82
2017-09-12T02:44:33.127Z,74.25
2017-09-12T02:45:01.295Z,74.63
2017-09-12T02:45:29.191Z,74.54
2017-09-12T02:45:57.248Z,74.54
2017-09-12T02:46:25.405Z,74.54
2017-09-12T02:46:53.254Z,75.11
2017-09-12T02:47:21.011Z,75.11
2017-09-12T02:47:49.073Z,75.4
2017-09-12T02:48:17.128Z,75.59
2017-09-12T02:48:44.984Z,75.21
2017-09-12T02:49:13.112Z,75.31
2017-09-12T02:49:41.078Z,75.69
2017-09-12T02:50:09.146Z,76.07
2017-09-12T02:50:37.165Z,75.79
2017-09-12T02:51:05.201Z,76.56
2017-09-12T02:51:33.454Z,76.46
2017-09-12T02:52:01.604Z,75.98
2017-09-12T02:52:29.745Z,76.65
2017-09-12T02:52:57.907Z,76.94
2017-09-12T02:53:25.745Z,77.23
2017-09-12T02:53:53.887Z,77.23
2017-09-12T02:54:22.048Z,77.61
2017-09-12T02:54:50.091Z,77.51
2017-09-12T02:55:18.032Z,77.33
2017-09-12T02:55:46.075Z,77.33
2017-09-12T02:56:14.219Z,77.61
2017-09-12T02:56:42.480Z,78
2017-09-12T02:57:10.470Z,77.42
2017-09-12T02:57:38.597Z,77.51
2017-09-12T02:58:06.552Z,78.09
2017-09-12T02:58:34.617Z,78
2017-09-12T02:59:02.554Z,78.28
2017-09-12T02:59:30.706Z,78.09
2017-09-12T02:59:58.547Z,78.09
2017-09-12T03:00:26.586Z,78.09
2017-09-12T03:00:54.735Z,78.19
2017-09-12T03:01:22.803Z,78.96
2017-09-12T03:01:50.928Z,78.67
2017-09-12T03:02:18.877Z,78.73
2017-09-12T03:02:46.904Z,78.86
2017-09-12T03:03:14.839Z,79.02
2017-09-12T03:03:42.753Z,79.4
2017-09-12T03:04:10.814Z,79.3
2017-09-12T03:04:38.771Z,79.21
2017-09-12T03:05:06.826Z,80.07
2017-09-12T03:05:34.756Z,79.98
2017-09-12T03:06:02.816Z,80.07
2017-09-12T03:06:31.065Z,80.17
2017-09-12T03:06:59.011Z,80.17
2017-09-12T03:07:27.148Z,80.55
2017-09-12T03:07:55.218Z,80.75
2017-09-12T03:08:23.278Z,80.27
2017-09-12T03:08:51.417Z,80.84
2017-09-12T03:09:19.361Z,81.13
2017-09-12T03:09:47.385Z,81.23
2017-09-12T03:10:15.400Z,81.42
2017-09-12T03:10:43.521Z,81.32
2017-09-12T03:11:11.574Z,81.71
2017-09-12T03:11:39.841Z,82.48
2017-09-12T03:12:07.815Z,81.9
2017-09-12T03:12:35.734Z,82.57
2017-09-12T03:13:03.933Z,82.38
2017-09-12T03:13:31.846Z,82.67
2017-09-12T03:13:59.596Z,82.67
2017-09-12T03:14:27.445Z,83.06
2017-09-12T03:14:55.483Z,83.83
2017-09-12T03:15:23.453Z,83.63
2017-09-12T03:15:51.504Z,84.01
2017-09-12T03:16:19.344Z,84.01
2017-09-12T03:16:47.371Z,83.83
2017-09-12T03:17:15.407Z,84.11
2017-09-12T03:17:43.244Z,84.69
2017-09-12T03:18:11.295Z,84.3
2017-09-12T03:18:39.441Z,84.59
2017-09-12T03:19:07.576Z,84.5
2017-09-12T03:19:35.522Z,84.5
2017-09-12T03:20:03.598Z,85.17
2017-09-12T03:20:31.535Z,85.03
2017-09-12T03:20:59.581Z,85.46
2017-09-12T03:21:27.731Z,85.46
2017-09-12T03:21:55.886Z,85.17
2017-09-12T03:22:23.807Z,85.22
2017-09-12T03:22:51.956Z,85.61
2017-09-12T03:23:20.127Z,85.32
2017-09-12T03:23:48.147Z,85.71
2017-09-12T03:24:15.964Z,86.28
2017-09-12T03:24:43.826Z,86.57
2017-09-12T03:25:11.962Z,86.47
2017-09-12T03:25:39.905Z,86.61
2017-09-12T03:26:07.965Z,86.95
2017-09-12T03:26:35.811Z,87.05
2017-09-12T03:27:03.892Z,87.05
2017-09-12T03:27:32.059Z,86.76
2017-09-12T03:28:00.100Z,86.95
2017-09-12T03:28:28.278Z,86.85
2017-09-12T03:28:56.316Z,87.05
2017-09-12T03:29:24.379Z,86.76
2017-09-12T03:29:52.532Z,87.43
2017-09-12T03:30:20.670Z,87.62
2017-09-12T03:30:48.604Z,87.53
2017-09-12T03:31:16.638Z,88.3
2017-09-12T03:31:44.769Z,88.49
2017-09-12T03:32:12.651Z,88.49
2017-09-12T03:32:40.498Z,88.78
2017-09-12T03:33:08.642Z,89.36
2017-09-12T03:33:36.787Z,89.88
2017-09-12T03:34:04.822Z,89.74
2017-09-12T03:34:32.846Z,89.78
2017-09-12T03:35:00.920Z,89.74
2017-09-12T03:35:29.065Z,90.51
2017-09-12T03:35:57.115Z,90.22
2017-09-12T03:36:25.054Z,90.31
2017-09-12T03:36:53.313Z,90.03
2017-09-12T03:37:21.285Z,90.22
2017-09-12T03:37:49.296Z,90.31
2017-09-12T03:38:17.328Z,90.89
2017-09-12T03:38:45.197Z,90.7
2017-09-12T03:39:13.257Z,90.7
2017-09-12T03:39:41.195Z,90.8
2017-09-12T03:40:09.147Z,90.8
2017-09-12T03:40:37.194Z,90.8
2017-09-12T03:41:05.238Z,91.18
2017-09-12T03:41:33.183Z,91.18
2017-09-12T03:42:01.223Z,90.99
2017-09-12T03:42:29.259Z,91.37
2017-09-12T03:42:57.234Z,91.37
2017-09-12T03:43:25.261Z,91.61
2017-09-12T03:43:53.204Z,91.37
2017-09-12T03:44:21.047Z,91.47
2017-09-12T03:44:49.007Z,91.66
2017-09-12T03:45:17.113Z,92.14
2017-09-12T03:45:45.046Z,92.33
2017-09-12T03:46:12.978Z,92.52
2017-09-12T03:46:41.035Z,92.72
2017-09-12T03:47:09.274Z,93.29
2017-09-12T03:47:37.147Z,93.19
2017-09-12T03:48:05.298Z,93.49
2017-09-12T03:48:33.221Z,93.68
2017-09-12T03:49:01.187Z,93.96
2017-09-12T03:49:29.115Z,93.77
2017-09-12T03:49:56.968Z,93.87
2017-09-12T03:50:25.026Z,93.96
2017-09-12T03:50:53.063Z,94.06
2017-09-12T03:51:20.991Z,93.82
2017-09-12T03:51:49.054Z,94.16
2017-09-12T03:52:17.314Z,94.49
2017-09-12T03:52:45.472Z,94.59
2017-09-12T03:53:13.602Z,94.73
2017-09-12T03:53:41.781Z,94.83
2017-09-12T03:54:09.913Z,94.69
2017-09-12T03:54:37.762Z,94.78
2017-09-12T03:55:05.807Z,94.69
2017-09-12T03:55:33.861Z,94.88
2017-09-12T03:56:01.928Z,94.78
2017-09-12T03:56:30.056Z,95.17
2017-09-12T03:56:58.206Z,95.75
2017-09-12T03:57:26.411Z,95.36
2017-09-12T03:57:54.348Z,95.75
2017-09-12T03:58:22.400Z,95.6
2017-09-12T03:58:50.506Z,95.65
2017-09-12T03:59:18.590Z,95.75
2017-09-12T03:59:46.650Z,95.36
2017-09-12T04:00:14.495Z,96.22
2017-09-12T04:00:42.447Z,96.13
2017-09-12T04:01:10.495Z,95.94
2017-09-12T04:01:38.421Z,96.13
2017-09-12T04:02:06.566Z,95.84
2017-09-12T04:02:34.685Z,96.13
2017-09-12T04:03:02.845Z,96.22
2017-09-12T04:03:30.862Z,96.22
2017-09-12T04:03:58.900Z,95.55
2017-09-12T04:04:27.020Z,96.03
2017-09-12T04:04:55.082Z,96.17
2017-09-12T04:05:23.009Z,96.03
2017-09-12T04:05:51.157Z,96.61
2017-09-12T04:06:19.294Z,96.99
2017-09-12T04:06:47.337Z,96.7
2017-09-12T04:07:15.382Z,96.42
2017-09-12T04:07:43.444Z,97.09
2017-09-12T04:08:11.572Z,97.19
2017-09-12T04:08:39.502Z,97.19
2017-09-12T04:09:07.362Z,97.19
2017-09-12T04:09:35.182Z,97.19
2017-09-12T04:10:03.208Z,97.47
2017-09-12T04:10:31.259Z,97.47
2017-09-12T04:10:59.091Z,97.57
2017-09-12T04:11:26.848Z,98.05
2017-09-12T04:11:54.667Z,97.86
2017-09-12T04:12:22.713Z,98.34
2017-09-12T04:12:50.671Z,98.43
2017-09-12T04:13:18.824Z,98.24
2017-09-12T04:13:46.873Z,98.14
2017-09-12T04:14:14.937Z,98.53
2017-09-12T04:14:43.098Z,98.05
2017-09-12T04:15:11.247Z,98.82
2017-09-12T04:15:39.291Z,99.01
2017-09-12T04:16:07.334Z,99.2
2017-09-12T04:16:35.507Z,99.01
2017-09-12T04:17:03.446Z,99.1
2017-09-12T04:17:31.561Z,99.01
2017-09-12T04:17:59.385Z,99.49
2017-09-12T04:18:27.533Z,99.58
2017-09-12T04:18:55.490Z,99.68
2017-09-12T04:19:23.399Z,99.4
2017-09-12T04:19:51.448Z,99.87
2017-09-12T04:20:19.375Z,99.68
2017-09-12T04:20:47.305Z,99.4
2017-09-12T04:21:15.352Z,99.49
2017-09-12T04:21:43.214Z,99.4
2017-09-12T04:22:11.379Z,99.3
2017-09-12T04:22:39.309Z,99.78
2017-09-12T04:23:07.466Z,99.68
2017-09-12T04:23:35.514Z,99.4
2017-09-12T04:24:03.461Z,99.99
2017-09-12T04:24:31.404Z,99.99
2017-09-12T04:24:59.456Z,99.99
2017-09-12T04:25:27.510Z,99.99
2017-09-12T04:25:55.373Z,99.87
2017-09-12T04:26:23.429Z,99.68
2017-09-12T04:26:51.278Z,99.78
2017-09-12T04:27:19.503Z,99.68
2017-09-12T04:27:47.521Z,99.99
2017-09-12T04:28:15.850Z,99.99
2017-09-12T04:28:44.084Z,99.99
2017-09-12T04:29:12.117Z,99.99
2017-09-12T04:29:40.163Z,99.99
2017-09-12T04:30:08.110Z,99.99
2017-09-12T04:30:36.053Z,99.99
2017-09-12T04:31:04.208Z,99.99
2017-09-12T04:31:32.223Z,99.99
2017-09-12T04:32:00.201Z,99.87
2017-09-12T04:32:28.374Z,99.99
2017-09-12T04:32:56.315Z,99.99
2017-09-12T04:33:24.375Z,99.99
2017-09-12T04:33:52.514Z,99.99
2017-09-12T04:34:20.565Z,99.99
2017-09-12T04:34:48.727Z,99.99
2017-09-12T04:35:16.595Z,99.99
2017-09-12T04:35:44.714Z,99.99
2017-09-12T04:36:12.683Z,99.99
2017-09-12T04:36:40.591Z,99.97
2017-09-12T04:37:08.537Z,99.99
2017-09-12T04:37:36.778Z,99.99
2017-09-12T04:38:04.729Z,99.99
2017-09-12T04:38:32.669Z,99.99
2017-09-12T04:39:00.698Z,99.99
2017-09-12T04:39:28.636Z,99.99
2017-09-12T04:39:56.585Z,99.99
2017-09-12T04:40:24.621Z,99.99
2017-09-12T04:40:52.550Z,99.99
2017-09-12T04:41:20.665Z,99.99
2017-09-12T04:41:48.796Z,99.87
2017-09-12T04:42:16.764Z,99.34
2017-09-12T04:42:45.028Z,99.68
2017-09-12T04:43:13.068Z,99.54
2017-09-12T04:43:41.006Z,99.34
2017-09-12T04:44:08.938Z,99.15
2017-09-12T04:44:37.059Z,99.25
2017-09-12T04:45:05.041Z,99.25
2017-09-12T04:45:33.102Z,99.05
2017-09-12T04:46:01.158Z,98.77
2017-09-12T04:46:29.194Z,98.86
2017-09-12T04:46:57.261Z,98.96
2017-09-12T04:47:25.517Z,98.58
2017-09-12T04:47:53.587Z,98.48
2017-09-12T04:48:21.642Z,98.58
2017-09-12T04:48:49.702Z,98.58
2017-09-12T04:49:17.646Z,98.58
2017-09-12T04:49:45.474Z,98.86
2017-09-12T04:50:13.431Z,98.58
2017-09-12T04:50:41.577Z,98.58
2017-09-12T04:51:09.636Z,98.58
2017-09-12T04:51:37.677Z,99.05
2017-09-12T04:52:05.729Z,98.77
2017-09-12T04:52:33.887Z,98.19
2017-09-12T04:53:02.045Z,98.1
2017-09-12T04:53:30.061Z,98.19
2017-09-12T04:53:58.131Z,98
2017-09-12T04:54:26.204Z,97.81
2017-09-12T04:54:54.303Z,97.14
2017-09-12T04:55:22.350Z,96.56
2017-09-12T04:55:50.377Z,96.27
2017-09-12T04:56:18.337Z,95.79
2017-09-12T04:56:46.481Z,94.74
2017-09-12T04:57:14.431Z,88.88
2017-09-12T04:57:42.585Z,85.47
2017-09-12T04:58:10.657Z,84.6
2017-09-12T04:58:38.722Z,84.12
2017-09-12T04:59:06.697Z,83.74
2017-09-12T04:59:34.849Z,82.1
2017-09-12T05:00:02.920Z,81.38
2017-09-12T05:00:31.050Z,79.36
2017-09-12T05:00:59.095Z,77.83
2017-09-12T05:01:27.143Z,77.53
2017-09-12T05:01:55.281Z,75.9
2017-09-12T05:02:23.420Z,75.52
2017-09-12T05:02:51.573Z,75.17
2017-09-12T05:03:19.742Z,74.69
2017-09-12T05:03:47.892Z,75.17
2017-09-12T05:04:15.955Z,73.35
2017-09-12T05:04:43.987Z,72
2017-09-12T05:05:12.115Z,71.52
2017-09-12T05:05:40.164Z,71.23
2017-09-12T05:06:08.233Z,70.94
2017-09-12T05:06:36.263Z,69.63
2017-09-12T05:07:04.127Z,68.48
2017-09-12T05:07:32.229Z,68.48
2017-09-12T05:08:00.349Z,68.96
2017-09-12T05:08:28.206Z,68.96
2017-09-12T05:08:56.138Z,68.67
2017-09-12T05:09:24.182Z,68.76
2017-09-12T05:09:52.211Z,68.38
2017-09-12T05:10:20.369Z,68.48
2017-09-12T05:10:48.296Z,67.51
2017-09-12T05:11:16.396Z,66.36
2017-09-12T05:11:44.519Z,65.88
2017-09-12T05:12:12.437Z,66.27
2017-09-12T05:12:40.568Z,66.1
2017-09-12T05:13:08.517Z,66.65
2017-09-12T05:13:36.341Z,66.49
2017-09-12T05:14:04.468Z,65.72
2017-09-12T05:14:32.428Z,65.91
2017-09-12T05:15:00.644Z,65.63
2017-09-12T05:15:28.705Z,65.81
2017-09-12T05:15:56.746Z,66.01
2017-09-12T05:16:24.712Z,65.91
2017-09-12T05:16:52.709Z,65.5
2017-09-12T05:17:20.773Z,66.3
2017-09-12T05:17:48.937Z,66.39
2017-09-12T05:18:16.997Z,66.27
2017-09-12T05:18:45.019Z,66.07
2017-09-12T05:19:13.069Z,66.46
2017-09-12T05:19:41.208Z,66.27
2017-09-12T05:20:09.367Z,66.94
2017-09-12T05:20:37.410Z,67.61
2017-09-12T05:21:05.360Z,67.07
2017-09-12T05:21:33.312Z,66.55
2017-09-12T05:22:01.362Z,66.36
2017-09-12T05:22:29.513Z,65.59
2017-09-12T05:22:57.664Z,65.69
2017-09-12T05:23:25.747Z,66.1
2017-09-12T05:23:53.787Z,65.2
2017-09-12T05:24:21.959Z,65.69
2017-09-12T05:24:50.014Z,65.59
2017-09-12T05:25:18.137Z,65.72
2017-09-12T05:25:46.164Z,65.59
2017-09-12T05:26:14.235Z,65.69
2017-09-12T05:26:42.277Z,65.59
2017-09-12T05:27:10.410Z,66.27
2017-09-12T05:27:38.486Z,65.78
2017-09-12T05:28:06.639Z,65.78
2017-09-12T05:28:34.715Z,65.69
2017-09-12T05:29:02.814Z,65.78
2017-09-12T05:29:30.759Z,66.17
2017-09-12T05:29:58.879Z,66.07
2017-09-12T05:30:26.898Z,66.36
2017-09-12T05:30:54.982Z,66.74
2017-09-12T05:31:22.932Z,66.65
2017-09-12T05:31:50.973Z,66.55
2017-09-12T05:32:18.989Z,66.36
2017-09-12T05:32:47.031Z,66.84
2017-09-12T05:33:15.115Z,66.55
2017-09-12T05:33:43.032Z,66.94
2017-09-12T05:34:11.099Z,66.61
2017-09-12T05:34:38.940Z,66.74
2017-09-12T05:35:07.000Z,65.78
2017-09-12T05:35:34.988Z,65.88
2017-09-12T05:36:03.048Z,65.59
2017-09-12T05:36:30.891Z,65.2
2017-09-12T05:36:58.919Z,65.5
2017-09-12T05:37:26.884Z,64.92
2017-09-12T05:37:55.028Z,64.92
2017-09-12T05:38:22.966Z,64.92
2017-09-12T05:38:51.025Z,65.01
2017-09-12T05:39:19.169Z,65.11
2017-09-12T05:39:47.214Z,66.07
2017-09-12T05:40:15.134Z,65.59
2017-09-12T05:40:43.252Z,65.97
2017-09-12T05:41:11.388Z,65.01
2017-09-12T05:41:39.519Z,65.01
2017-09-12T05:42:07.540Z,65.88
2017-09-12T05:42:35.572Z,65.69
2017-09-12T05:43:03.829Z,65.97
2017-09-12T05:43:31.853Z,65.97
2017-09-12T05:43:59.893Z,65.97
2017-09-12T05:44:27.897Z,65.69
2017-09-12T05:44:55.853Z,65.59
2017-09-12T05:45:23.791Z,64.92
2017-09-12T05:45:51.961Z,65.01
2017-09-12T05:46:19.920Z,65.5
2017-09-12T05:46:48.078Z,64.73
2017-09-12T05:47:16.139Z,65.11
2017-09-12T05:47:44.184Z,64.73
2017-09-12T05:48:12.415Z,64.82
2017-09-12T05:48:40.552Z,64.73
2017-09-12T05:49:08.598Z,64.92
2017-09-12T05:49:36.725Z,64.53
2017-09-12T05:50:04.667Z,64.25
2017-09-12T05:50:32.718Z,64.37
2017-09-12T05:51:00.660Z,63.89
2017-09-12T05:51:28.711Z,63.6
2017-09-12T05:51:56.797Z,63.89
2017-09-12T05:52:24.937Z,63.99
2017-09-12T05:52:52.964Z,64.37
2017-09-12T05:53:21.170Z,64.18
2017-09-12T05:53:49.099Z,63.89
2017-09-12T05:54:17.159Z,63.99
2017-09-12T05:54:45.217Z,63.79
2017-09-12T05:55:13.363Z,64.08
2017-09-12T05:55:41.188Z,63.99
2017-09-12T05:56:09.038Z,63.95
2017-09-12T05:56:37.186Z,64.18
2017-09-12T05:57:05.334Z,64.18
2017-09-12T05:57:33.262Z,63.79
2017-09-12T05:58:01.371Z,63.99
2017-09-12T05:58:29.513Z,64.37
2017-09-12T05:58:57.333Z,63.89
2017-09-12T05:59:25.384Z,64.56
2017-09-12T05:59:53.436Z,64.47
2017-09-12T06:00:21.283Z,64.28
2017-09-12T06:00:49.395Z,64.37
2017-09-12T06:01:17.367Z,63.79
2017-09-12T06:01:45.334Z,63.89
2017-09-12T06:02:13.491Z,63.89